sensor_id;sensor_type;location;lat;lon;timestamp;P1;durP1;ratioP1;P2;durP2;ratioP2
51006;SDS011;37034;47.886;-3.904;2022-12-11T00:00:18;29.93;;;15.37;;
51006;SDS011;37034;47.886;-3.904;2022-12-11T00:02:44;17.43;;;7.70;;
51006;SDS011;37034;47.886;-3.904;2022-12-11T00:05:09;11.90;;;5.77;;
51006;SDS011;37034;47.886;-3.904;2022-12-11T00:07:35;18.83;;;9.10;;
51006;SDS011;37034;47.886;-3.904;2022-12-11T00:10:01;15.27;;;7.27;;
51006;SDS011;37034;47.886;-3.904;2022-12-11T00:12:30;12.82;;;7.18;;
51006;SDS011;37034;47.886;-3.904;2022-12-11T00:14:56;13.93;;;6.75;;
51006;SDS011;37034;47.886;-3.904;2022-12-11T00:17:22;19.07;;;8.73;;
51006;SDS011;37034;47.886;-3.904;2022-12-11T00:19:48;11.32;;;7.00;;
51006;SDS011;37034;47.886;-3.904;2022-12-11T00:22:13;13.97;;;6.33;;
51006;SDS011;37034;47.886;-3.904;2022-12-11T00:24:39;12.20;;;6.65;;
51006;SDS011;37034;47.886;-3.904;2022-12-11T00:27:05;10.40;;;6.00;;
51006;SDS011;37034;47.886;-3.904;2022-12-11T00:29:31;16.85;;;7.15;;
51006;SDS011;37034;47.886;-3.904;2022-12-11T00:31:57;12.73;;;6.67;;
51006;SDS011;37034;47.886;-3.904;2022-12-11T00:34:23;11.00;;;5.30;;
51006;SDS011;37034;47.886;-3.904;2022-12-11T00:36:49;12.50;;;6.23;;
51006;SDS011;37034;47.886;-3.904;2022-12-11T00:39:14;11.30;;;6.20;;
51006;SDS011;37034;47.886;-3.904;2022-12-11T00:41:40;15.83;;;7.77;;
51006;SDS011;37034;47.886;-3.904;2022-12-11T00:44:06;21.30;;;10.87;;
51006;SDS011;37034;47.886;-3.904;2022-12-11T00:46:32;20.90;;;9.30;;
51006;SDS011;37034;47.886;-3.904;2022-12-11T00:48:57;14.90;;;6.33;;
51006;SDS011;37034;47.886;-3.904;2022-12-11T00:51:23;11.97;;;5.00;;
51006;SDS011;37034;47.886;-3.904;2022-12-11T00:53:52;17.33;;;5.72;;
51006;SDS011;37034;47.886;-3.904;2022-12-11T00:56:19;8.65;;;4.35;;
51006;SDS011;37034;47.886;-3.904;2022-12-11T00:58:46;8.45;;;4.32;;
51006;SDS011;37034;47.886;-3.904;2022-12-11T01:01:20;9.07;;;4.15;;
51006;SDS011;37034;47.886;-3.904;2022-12-11T01:03:47;7.32;;;4.05;;
51006;SDS011;37034;47.886;-3.904;2022-12-11T01:06:17;8.55;;;4.35;;
51006;SDS011;37034;47.886;-3.904;2022-12-11T01:08:46;12.15;;;4.38;;
51006;SDS011;37034;47.886;-3.904;2022-12-11T01:11:12;12.82;;;5.18;;
51006;SDS011;37034;47.886;-3.904;2022-12-11T01:13:40;8.43;;;4.20;;
51006;SDS011;37034;47.886;-3.904;2022-12-11T01:18:41;8.40;;;4.32;;
51006;SDS011;37034;47.886;-3.904;2022-12-11T01:21:08;12.23;;;4.95;;
51006;SDS011;37034;47.886;-3.904;2022-12-11T01:23:36;10.20;;;4.22;;
51006;SDS011;37034;47.886;-3.904;2022-12-11T01:26:10;10.25;;;4.07;;
51006;SDS011;37034;47.886;-3.904;2022-12-11T01:28:38;8.30;;;4.82;;
51006;SDS011;37034;47.886;-3.904;2022-12-11T01:31:11;9.40;;;4.55;;
51006;SDS011;37034;47.886;-3.904;2022-12-11T01:33:38;11.82;;;4.60;;
51006;SDS011;37034;47.886;-3.904;2022-12-11T01:36:08;11.02;;;4.90;;
51006;SDS011;37034;47.886;-3.904;2022-12-11T01:38:38;12.93;;;5.88;;
51006;SDS011;37034;47.886;-3.904;2022-12-11T01:41:04;10.07;;;4.57;;
51006;SDS011;37034;47.886;-3.904;2022-12-11T01:43:30;12.00;;;5.50;;
51006;SDS011;37034;47.886;-3.904;2022-12-11T01:45:56;12.27;;;6.10;;
51006;SDS011;37034;47.886;-3.904;2022-12-11T01:48:23;9.43;;;4.90;;
51006;SDS011;37034;47.886;-3.904;2022-12-11T01:50:54;9.30;;;4.63;;
51006;SDS011;37034;47.886;-3.904;2022-12-11T01:53:32;8.88;;;4.30;;
51006;SDS011;37034;47.886;-3.904;2022-12-11T01:56:00;7.63;;;4.60;;
51006;SDS011;37034;47.886;-3.904;2022-12-11T01:58:31;10.18;;;4.20;;
51006;SDS011;37034;47.886;-3.904;2022-12-11T02:01:01;7.20;;;4.13;;
51006;SDS011;37034;47.886;-3.904;2022-12-11T02:03:27;7.90;;;4.07;;
51006;SDS011;37034;47.886;-3.904;2022-12-11T02:05:52;6.30;;;3.53;;
51006;SDS011;37034;47.886;-3.904;2022-12-11T02:08:18;6.77;;;3.83;;
51006;SDS011;37034;47.886;-3.904;2022-12-11T02:16:25;10.65;;;5.07;;
51006;SDS011;37034;47.886;-3.904;2022-12-11T02:19:13;8.23;;;4.95;;
51006;SDS011;37034;47.886;-3.904;2022-12-11T02:21:52;10.05;;;4.15;;
51006;SDS011;37034;47.886;-3.904;2022-12-11T02:24:31;10.50;;;4.70;;
51006;SDS011;37034;47.886;-3.904;2022-12-11T02:32:25;9.02;;;4.10;;
51006;SDS011;37034;47.886;-3.904;2022-12-11T02:34:59;8.43;;;4.15;;
51006;SDS011;37034;47.886;-3.904;2022-12-11T02:37:40;11.15;;;4.90;;
51006;SDS011;37034;47.886;-3.904;2022-12-11T02:40:10;8.02;;;4.43;;
51006;SDS011;37034;47.886;-3.904;2022-12-11T02:42:39;11.02;;;4.75;;
51006;SDS011;37034;47.886;-3.904;2022-12-11T02:45:06;8.25;;;4.40;;
51006;SDS011;37034;47.886;-3.904;2022-12-11T02:47:34;9.50;;;5.25;;
51006;SDS011;37034;47.886;-3.904;2022-12-11T02:50:02;13.40;;;4.75;;
51006;SDS011;37034;47.886;-3.904;2022-12-11T02:52:34;11.65;;;5.53;;
51006;SDS011;37034;47.886;-3.904;2022-12-11T02:55:04;9.38;;;4.68;;
51006;SDS011;37034;47.886;-3.904;2022-12-11T02:57:37;11.02;;;5.60;;
51006;SDS011;37034;47.886;-3.904;2022-12-11T03:00:08;10.57;;;5.30;;
51006;SDS011;37034;47.886;-3.904;2022-12-11T03:02:35;8.90;;;4.40;;
51006;SDS011;37034;47.886;-3.904;2022-12-11T03:05:03;8.32;;;4.25;;
51006;SDS011;37034;47.886;-3.904;2022-12-11T03:07:30;10.98;;;5.47;;
51006;SDS011;37034;47.886;-3.904;2022-12-11T03:09:58;10.07;;;5.57;;
51006;SDS011;37034;47.886;-3.904;2022-12-11T03:12:28;8.50;;;4.32;;
51006;SDS011;37034;47.886;-3.904;2022-12-11T03:14:57;10.80;;;5.78;;
51006;SDS011;37034;47.886;-3.904;2022-12-11T03:17:28;9.32;;;4.82;;
51006;SDS011;37034;47.886;-3.904;2022-12-11T03:20:02;14.65;;;7.20;;
51006;SDS011;37034;47.886;-3.904;2022-12-11T03:22:44;11.40;;;5.82;;
51006;SDS011;37034;47.886;-3.904;2022-12-11T03:25:23;12.43;;;5.65;;
51006;SDS011;37034;47.886;-3.904;2022-12-11T03:30:23;10.88;;;5.72;;
51006;SDS011;37034;47.886;-3.904;2022-12-11T03:37:59;13.15;;;6.45;;
51006;SDS011;37034;47.886;-3.904;2022-12-11T03:40:29;14.20;;;6.85;;
51006;SDS011;37034;47.886;-3.904;2022-12-11T03:42:58;10.85;;;6.32;;
51006;SDS011;37034;47.886;-3.904;2022-12-11T03:45:24;14.20;;;5.95;;
51006;SDS011;37034;47.886;-3.904;2022-12-11T03:47:52;15.98;;;7.03;;
51006;SDS011;37034;47.886;-3.904;2022-12-11T03:50:20;12.88;;;6.90;;
51006;SDS011;37034;47.886;-3.904;2022-12-11T03:52:47;10.73;;;5.45;;
51006;SDS011;37034;47.886;-3.904;2022-12-11T03:55:15;12.52;;;6.68;;
51006;SDS011;37034;47.886;-3.904;2022-12-11T03:57:43;10.85;;;6.75;;
51006;SDS011;37034;47.886;-3.904;2022-12-11T04:00:11;18.80;;;6.65;;
51006;SDS011;37034;47.886;-3.904;2022-12-11T04:02:39;13.27;;;7.05;;
51006;SDS011;37034;47.886;-3.904;2022-12-11T04:07:31;12.77;;;6.35;;
51006;SDS011;37034;47.886;-3.904;2022-12-11T04:09:57;11.80;;;6.67;;
51006;SDS011;37034;47.886;-3.904;2022-12-11T04:12:24;11.40;;;7.53;;
51006;SDS011;37034;47.886;-3.904;2022-12-11T04:14:50;14.53;;;8.03;;
51006;SDS011;37034;47.886;-3.904;2022-12-11T04:17:31;12.40;;;7.47;;
51006;SDS011;37034;47.886;-3.904;2022-12-11T04:20:17;16.90;;;8.75;;
51006;SDS011;37034;47.886;-3.904;2022-12-11T04:23:06;14.32;;;8.10;;
51006;SDS011;37034;47.886;-3.904;2022-12-11T04:26:10;19.45;;;9.27;;
51006;SDS011;37034;47.886;-3.904;2022-12-11T04:28:41;18.95;;;9.13;;
51006;SDS011;37034;47.886;-3.904;2022-12-11T04:31:15;30.15;;;11.93;;
51006;SDS011;37034;47.886;-3.904;2022-12-11T04:33:42;23.75;;;11.85;;
51006;SDS011;37034;47.886;-3.904;2022-12-11T04:36:08;27.23;;;13.43;;
51006;SDS011;37034;47.886;-3.904;2022-12-11T04:38:35;23.45;;;12.93;;
51006;SDS011;37034;47.886;-3.904;2022-12-11T04:41:02;35.45;;;13.35;;
51006;SDS011;37034;47.886;-3.904;2022-12-11T04:43:30;33.15;;;17.17;;
51006;SDS011;37034;47.886;-3.904;2022-12-11T04:46:07;36.33;;;17.60;;
51006;SDS011;37034;47.886;-3.904;2022-12-11T04:48:34;30.13;;;11.75;;
51006;SDS011;37034;47.886;-3.904;2022-12-11T04:51:01;31.55;;;15.52;;
51006;SDS011;37034;47.886;-3.904;2022-12-11T04:53:27;51.60;;;22.95;;
51006;SDS011;37034;47.886;-3.904;2022-12-11T04:55:53;47.83;;;16.92;;
51006;SDS011;37034;47.886;-3.904;2022-12-11T04:58:19;47.78;;;19.45;;
51006;SDS011;37034;47.886;-3.904;2022-12-11T05:00:45;34.60;;;15.23;;
51006;SDS011;37034;47.886;-3.904;2022-12-11T05:03:10;15.33;;;8.10;;
51006;SDS011;37034;47.886;-3.904;2022-12-11T05:05:37;20.63;;;10.73;;
51006;SDS011;37034;47.886;-3.904;2022-12-11T05:08:03;45.60;;;13.07;;
51006;SDS011;37034;47.886;-3.904;2022-12-11T05:10:29;39.10;;;18.13;;
51006;SDS011;37034;47.886;-3.904;2022-12-11T05:12:54;32.97;;;14.07;;
51006;SDS011;37034;47.886;-3.904;2022-12-11T05:15:20;38.00;;;19.20;;
51006;SDS011;37034;47.886;-3.904;2022-12-11T05:17:46;29.53;;;17.00;;
51006;SDS011;37034;47.886;-3.904;2022-12-11T05:20:11;22.37;;;13.00;;
51006;SDS011;37034;47.886;-3.904;2022-12-11T05:22:37;29.77;;;12.33;;
51006;SDS011;37034;47.886;-3.904;2022-12-11T05:25:03;19.30;;;10.63;;
51006;SDS011;37034;47.886;-3.904;2022-12-11T05:29:56;21.80;;;13.10;;
51006;SDS011;37034;47.886;-3.904;2022-12-11T05:32:21;26.93;;;13.77;;
51006;SDS011;37034;47.886;-3.904;2022-12-11T05:34:48;34.07;;;17.77;;
51006;SDS011;37034;47.886;-3.904;2022-12-11T05:37:15;65.40;;;28.73;;
51006;SDS011;37034;47.886;-3.904;2022-12-11T05:39:40;109.80;;;51.30;;
51006;SDS011;37034;47.886;-3.904;2022-12-11T05:42:06;44.83;;;21.87;;
51006;SDS011;37034;47.886;-3.904;2022-12-11T05:44:32;76.27;;;36.30;;
51006;SDS011;37034;47.886;-3.904;2022-12-11T05:46:58;41.10;;;22.17;;
51006;SDS011;37034;47.886;-3.904;2022-12-11T05:49:23;22.67;;;11.43;;
51006;SDS011;37034;47.886;-3.904;2022-12-11T05:51:49;22.90;;;12.07;;
51006;SDS011;37034;47.886;-3.904;2022-12-11T05:54:15;30.80;;;18.40;;
51006;SDS011;37034;47.886;-3.904;2022-12-11T05:56:40;41.33;;;20.97;;
51006;SDS011;37034;47.886;-3.904;2022-12-11T05:59:06;25.30;;;12.63;;
51006;SDS011;37034;47.886;-3.904;2022-12-11T06:01:36;25.98;;;13.10;;
51006;SDS011;37034;47.886;-3.904;2022-12-11T06:04:04;20.90;;;12.95;;
51006;SDS011;37034;47.886;-3.904;2022-12-11T06:06:31;23.52;;;13.20;;
51006;SDS011;37034;47.886;-3.904;2022-12-11T06:11:25;27.92;;;14.07;;
51006;SDS011;37034;47.886;-3.904;2022-12-11T06:13:52;25.08;;;13.85;;
51006;SDS011;37034;47.886;-3.904;2022-12-11T06:16:18;22.13;;;13.25;;
51006;SDS011;37034;47.886;-3.904;2022-12-11T06:21:14;21.63;;;11.18;;
51006;SDS011;37034;47.886;-3.904;2022-12-11T06:23:48;13.27;;;7.95;;
51006;SDS011;37034;47.886;-3.904;2022-12-11T06:26:16;26.83;;;14.15;;
51006;SDS011;37034;47.886;-3.904;2022-12-11T06:28:42;23.63;;;12.75;;
51006;SDS011;37034;47.886;-3.904;2022-12-11T06:31:08;22.75;;;12.18;;
51006;SDS011;37034;47.886;-3.904;2022-12-11T06:33:35;23.85;;;11.68;;
51006;SDS011;37034;47.886;-3.904;2022-12-11T06:36:05;23.67;;;12.38;;
51006;SDS011;37034;47.886;-3.904;2022-12-11T06:38:33;20.52;;;10.95;;
51006;SDS011;37034;47.886;-3.904;2022-12-11T06:40:59;14.00;;;8.20;;
51006;SDS011;37034;47.886;-3.904;2022-12-11T06:43:26;19.15;;;11.50;;
51006;SDS011;37034;47.886;-3.904;2022-12-11T06:45:52;30.43;;;13.07;;
51006;SDS011;37034;47.886;-3.904;2022-12-11T06:48:18;24.33;;;12.60;;
51006;SDS011;37034;47.886;-3.904;2022-12-11T06:50:44;17.25;;;9.65;;
51006;SDS011;37034;47.886;-3.904;2022-12-11T06:53:10;20.23;;;11.48;;
51006;SDS011;37034;47.886;-3.904;2022-12-11T06:55:37;25.92;;;12.18;;
51006;SDS011;37034;47.886;-3.904;2022-12-11T06:58:03;23.73;;;12.37;;
51006;SDS011;37034;47.886;-3.904;2022-12-11T07:00:29;20.90;;;10.95;;
51006;SDS011;37034;47.886;-3.904;2022-12-11T07:02:55;21.10;;;11.20;;
51006;SDS011;37034;47.886;-3.904;2022-12-11T07:05:21;19.70;;;10.63;;
51006;SDS011;37034;47.886;-3.904;2022-12-11T07:07:47;24.50;;;12.25;;
51006;SDS011;37034;47.886;-3.904;2022-12-11T07:10:13;17.40;;;9.20;;
51006;SDS011;37034;47.886;-3.904;2022-12-11T07:12:39;21.38;;;9.50;;
51006;SDS011;37034;47.886;-3.904;2022-12-11T07:15:05;21.43;;;11.67;;
51006;SDS011;37034;47.886;-3.904;2022-12-11T07:17:31;20.73;;;11.27;;
51006;SDS011;37034;47.886;-3.904;2022-12-11T07:19:57;22.33;;;10.97;;
51006;SDS011;37034;47.886;-3.904;2022-12-11T07:22:22;27.00;;;11.87;;
51006;SDS011;37034;47.886;-3.904;2022-12-11T07:24:48;21.85;;;11.20;;
51006;SDS011;37034;47.886;-3.904;2022-12-11T07:27:14;23.47;;;12.20;;
51006;SDS011;37034;47.886;-3.904;2022-12-11T07:29:39;20.83;;;11.33;;
51006;SDS011;37034;47.886;-3.904;2022-12-11T07:32:05;14.50;;;8.47;;
51006;SDS011;37034;47.886;-3.904;2022-12-11T07:34:31;23.23;;;12.57;;
51006;SDS011;37034;47.886;-3.904;2022-12-11T07:36:56;32.67;;;14.93;;
51006;SDS011;37034;47.886;-3.904;2022-12-11T07:39:22;29.27;;;14.87;;
51006;SDS011;37034;47.886;-3.904;2022-12-11T07:41:48;17.63;;;9.90;;
51006;SDS011;37034;47.886;-3.904;2022-12-11T07:44:14;20.63;;;12.23;;
51006;SDS011;37034;47.886;-3.904;2022-12-11T07:46:39;20.60;;;12.30;;
51006;SDS011;37034;47.886;-3.904;2022-12-11T07:49:05;19.23;;;11.75;;
51006;SDS011;37034;47.886;-3.904;2022-12-11T07:51:32;21.17;;;11.30;;
51006;SDS011;37034;47.886;-3.904;2022-12-11T07:54:00;21.52;;;11.73;;
51006;SDS011;37034;47.886;-3.904;2022-12-11T07:56:35;24.10;;;12.35;;
51006;SDS011;37034;47.886;-3.904;2022-12-11T07:59:02;27.37;;;13.17;;
51006;SDS011;37034;47.886;-3.904;2022-12-11T08:01:30;22.48;;;12.50;;
51006;SDS011;37034;47.886;-3.904;2022-12-11T08:03:59;21.25;;;10.23;;
51006;SDS011;37034;47.886;-3.904;2022-12-11T08:06:29;24.85;;;12.93;;
51006;SDS011;37034;47.886;-3.904;2022-12-11T08:08:57;19.05;;;10.82;;
51006;SDS011;37034;47.886;-3.904;2022-12-11T08:11:24;21.00;;;12.20;;
51006;SDS011;37034;47.886;-3.904;2022-12-11T08:13:50;34.22;;;14.93;;
51006;SDS011;37034;47.886;-3.904;2022-12-11T08:16:15;21.33;;;10.63;;
51006;SDS011;37034;47.886;-3.904;2022-12-11T08:21:12;25.90;;;12.98;;
51006;SDS011;37034;47.886;-3.904;2022-12-11T08:23:46;35.35;;;17.17;;
51006;SDS011;37034;47.886;-3.904;2022-12-11T08:26:14;26.23;;;14.35;;
51006;SDS011;37034;47.886;-3.904;2022-12-11T08:28:42;26.85;;;12.27;;
51006;SDS011;37034;47.886;-3.904;2022-12-11T08:31:08;24.98;;;12.27;;
51006;SDS011;37034;47.886;-3.904;2022-12-11T08:33:36;28.63;;;13.85;;
51006;SDS011;37034;47.886;-3.904;2022-12-11T08:36:03;41.78;;;12.05;;
51006;SDS011;37034;47.886;-3.904;2022-12-11T08:38:31;31.58;;;12.32;;
51006;SDS011;37034;47.886;-3.904;2022-12-11T08:40:57;30.05;;;12.43;;
51006;SDS011;37034;47.886;-3.904;2022-12-11T08:43:23;20.37;;;11.37;;
51006;SDS011;37034;47.886;-3.904;2022-12-11T08:45:51;45.72;;;12.25;;
51006;SDS011;37034;47.886;-3.904;2022-12-11T08:48:17;27.90;;;11.87;;
51006;SDS011;37034;47.886;-3.904;2022-12-11T08:50:42;78.63;;;13.63;;
51006;SDS011;37034;47.886;-3.904;2022-12-11T08:53:08;27.10;;;9.67;;
51006;SDS011;37034;47.886;-3.904;2022-12-11T08:55:34;42.77;;;12.83;;
51006;SDS011;37034;47.886;-3.904;2022-12-11T08:57:59;60.03;;;11.87;;
51006;SDS011;37034;47.886;-3.904;2022-12-11T09:00:25;34.00;;;11.93;;
51006;SDS011;37034;47.886;-3.904;2022-12-11T09:02:51;30.53;;;11.43;;
51006;SDS011;37034;47.886;-3.904;2022-12-11T09:05:16;26.90;;;14.30;;
51006;SDS011;37034;47.886;-3.904;2022-12-11T09:07:42;22.43;;;12.03;;
51006;SDS011;37034;47.886;-3.904;2022-12-11T09:10:08;19.30;;;11.10;;
51006;SDS011;37034;47.886;-3.904;2022-12-11T09:12:34;35.55;;;8.38;;
51006;SDS011;37034;47.886;-3.904;2022-12-11T09:15:01;25.33;;;11.02;;
51006;SDS011;37034;47.886;-3.904;2022-12-11T09:17:27;28.13;;;11.82;;
51006;SDS011;37034;47.886;-3.904;2022-12-11T09:19:53;16.43;;;10.47;;
51006;SDS011;37034;47.886;-3.904;2022-12-11T09:22:19;19.77;;;10.37;;
51006;SDS011;37034;47.886;-3.904;2022-12-11T09:24:44;20.50;;;11.57;;
51006;SDS011;37034;47.886;-3.904;2022-12-11T09:27:11;29.23;;;12.38;;
51006;SDS011;37034;47.886;-3.904;2022-12-11T09:29:37;36.35;;;11.75;;
51006;SDS011;37034;47.886;-3.904;2022-12-11T09:32:03;29.92;;;12.23;;
51006;SDS011;37034;47.886;-3.904;2022-12-11T09:34:29;23.88;;;12.27;;
51006;SDS011;37034;47.886;-3.904;2022-12-11T09:36:55;61.37;;;16.20;;
51006;SDS011;37034;47.886;-3.904;2022-12-11T09:39:20;48.60;;;23.30;;
51006;SDS011;37034;47.886;-3.904;2022-12-11T09:42:00;41.53;;;19.50;;
51006;SDS011;37034;47.886;-3.904;2022-12-11T09:49:44;36.15;;;12.70;;
51006;SDS011;37034;47.886;-3.904;2022-12-11T09:54:50;24.08;;;11.35;;
51006;SDS011;37034;47.886;-3.904;2022-12-11T10:00:00;22.67;;;10.75;;
51006;SDS011;37034;47.886;-3.904;2022-12-11T10:11:04;20.30;;;10.40;;
51006;SDS011;37034;47.886;-3.904;2022-12-11T10:18:54;18.60;;;9.35;;
51006;SDS011;37034;47.886;-3.904;2022-12-11T10:21:21;22.95;;;9.48;;
51006;SDS011;37034;47.886;-3.904;2022-12-11T10:23:55;26.60;;;10.33;;
51006;SDS011;37034;47.886;-3.904;2022-12-11T10:26:26;17.45;;;9.15;;
51006;SDS011;37034;47.886;-3.904;2022-12-11T10:28:53;17.13;;;9.57;;
51006;SDS011;37034;47.886;-3.904;2022-12-11T10:31:27;26.52;;;15.30;;
51006;SDS011;37034;47.886;-3.904;2022-12-11T10:34:33;15.50;;;9.38;;
51006;SDS011;37034;47.886;-3.904;2022-12-11T10:37:04;19.48;;;9.18;;
51006;SDS011;37034;47.886;-3.904;2022-12-11T10:39:29;13.53;;;6.63;;
51006;SDS011;37034;47.886;-3.904;2022-12-11T10:41:55;16.17;;;8.93;;
51006;SDS011;37034;47.886;-3.904;2022-12-11T10:49:35;20.55;;;9.20;;
51006;SDS011;37034;47.886;-3.904;2022-12-11T10:52:22;29.02;;;9.63;;
51006;SDS011;37034;47.886;-3.904;2022-12-11T10:57:31;24.17;;;11.55;;
51006;SDS011;37034;47.886;-3.904;2022-12-11T10:59:59;22.67;;;12.63;;
51006;SDS011;37034;47.886;-3.904;2022-12-11T11:02:30;20.40;;;12.02;;
51006;SDS011;37034;47.886;-3.904;2022-12-11T11:05:09;21.30;;;8.70;;
51006;SDS011;37034;47.886;-3.904;2022-12-11T11:07:37;24.40;;;10.73;;
51006;SDS011;37034;47.886;-3.904;2022-12-11T11:12:38;22.98;;;10.60;;
51006;SDS011;37034;47.886;-3.904;2022-12-11T11:17:49;15.18;;;8.35;;
51006;SDS011;37034;47.886;-3.904;2022-12-11T11:20:18;15.68;;;9.25;;
51006;SDS011;37034;47.886;-3.904;2022-12-11T11:22:49;20.75;;;10.90;;
51006;SDS011;37034;47.886;-3.904;2022-12-11T11:25:19;19.52;;;10.13;;
51006;SDS011;37034;47.886;-3.904;2022-12-11T11:27:51;35.85;;;10.15;;
51006;SDS011;37034;47.886;-3.904;2022-12-11T11:30:36;17.17;;;10.13;;
51006;SDS011;37034;47.886;-3.904;2022-12-11T11:33:12;17.23;;;9.50;;
51006;SDS011;37034;47.886;-3.904;2022-12-11T11:38:33;26.45;;;10.07;;
51006;SDS011;37034;47.886;-3.904;2022-12-11T11:41:03;15.43;;;9.18;;
51006;SDS011;37034;47.886;-3.904;2022-12-11T11:43:43;44.63;;;12.63;;
51006;SDS011;37034;47.886;-3.904;2022-12-11T11:53:52;16.45;;;10.15;;
51006;SDS011;37034;47.886;-3.904;2022-12-11T12:01:21;16.60;;;9.98;;
51006;SDS011;37034;47.886;-3.904;2022-12-11T12:03:48;23.38;;;13.55;;
51006;SDS011;37034;47.886;-3.904;2022-12-11T12:14:29;20.92;;;10.02;;
51006;SDS011;37034;47.886;-3.904;2022-12-11T12:22:34;17.58;;;10.55;;
51006;SDS011;37034;47.886;-3.904;2022-12-11T12:28:18;16.40;;;9.85;;
51006;SDS011;37034;47.886;-3.904;2022-12-11T12:42:12;16.35;;;8.35;;
51006;SDS011;37034;47.886;-3.904;2022-12-11T12:44:41;14.70;;;8.48;;
51006;SDS011;37034;47.886;-3.904;2022-12-11T12:47:31;17.17;;;9.70;;
51006;SDS011;37034;47.886;-3.904;2022-12-11T12:49:59;17.67;;;9.10;;
51006;SDS011;37034;47.886;-3.904;2022-12-11T12:52:30;14.88;;;9.00;;
51006;SDS011;37034;47.886;-3.904;2022-12-11T12:54:59;17.52;;;8.10;;
51006;SDS011;37034;47.886;-3.904;2022-12-11T12:57:42;16.42;;;9.23;;
51006;SDS011;37034;47.886;-3.904;2022-12-11T13:00:11;16.42;;;9.27;;
51006;SDS011;37034;47.886;-3.904;2022-12-11T13:02:45;32.80;;;12.82;;
51006;SDS011;37034;47.886;-3.904;2022-12-11T13:05:18;17.52;;;11.38;;
51006;SDS011;37034;47.886;-3.904;2022-12-11T13:07:51;19.10;;;11.50;;
51006;SDS011;37034;47.886;-3.904;2022-12-11T13:12:59;22.80;;;13.95;;
51006;SDS011;37034;47.886;-3.904;2022-12-11T13:15:33;17.45;;;10.68;;
51006;SDS011;37034;47.886;-3.904;2022-12-11T13:18:06;18.70;;;10.73;;
51006;SDS011;37034;47.886;-3.904;2022-12-11T13:20:59;23.95;;;11.93;;
51006;SDS011;37034;47.886;-3.904;2022-12-11T13:23:30;17.42;;;10.55;;
51006;SDS011;37034;47.886;-3.904;2022-12-11T13:25:59;16.30;;;9.77;;
51006;SDS011;37034;47.886;-3.904;2022-12-11T13:28:27;16.75;;;9.75;;
51006;SDS011;37034;47.886;-3.904;2022-12-11T13:33:31;15.73;;;9.02;;
51006;SDS011;37034;47.886;-3.904;2022-12-11T13:38:33;14.57;;;8.65;;
51006;SDS011;37034;47.886;-3.904;2022-12-11T13:41:00;19.60;;;9.70;;
51006;SDS011;37034;47.886;-3.904;2022-12-11T13:43:29;17.08;;;9.75;;
51006;SDS011;37034;47.886;-3.904;2022-12-11T13:45:58;16.48;;;9.82;;
51006;SDS011;37034;47.886;-3.904;2022-12-11T13:48:34;27.63;;;10.52;;
51006;SDS011;37034;47.886;-3.904;2022-12-11T13:51:02;26.58;;;14.63;;
51006;SDS011;37034;47.886;-3.904;2022-12-11T13:53:28;29.35;;;11.70;;
51006;SDS011;37034;47.886;-3.904;2022-12-11T13:55:58;18.63;;;11.17;;
51006;SDS011;37034;47.886;-3.904;2022-12-11T13:58:45;23.27;;;13.25;;
51006;SDS011;37034;47.886;-3.904;2022-12-11T14:01:16;21.48;;;13.38;;
51006;SDS011;37034;47.886;-3.904;2022-12-11T14:04:00;19.30;;;10.90;;
51006;SDS011;37034;47.886;-3.904;2022-12-11T14:06:30;22.88;;;13.30;;
51006;SDS011;37034;47.886;-3.904;2022-12-11T14:08:59;21.50;;;11.07;;
51006;SDS011;37034;47.886;-3.904;2022-12-11T14:11:33;18.58;;;11.02;;
51006;SDS011;37034;47.886;-3.904;2022-12-11T14:14:06;17.88;;;11.00;;
51006;SDS011;37034;47.886;-3.904;2022-12-11T14:16:41;25.05;;;13.60;;
51006;SDS011;37034;47.886;-3.904;2022-12-11T14:19:13;18.13;;;11.38;;
51006;SDS011;37034;47.886;-3.904;2022-12-11T14:21:41;22.13;;;12.45;;
51006;SDS011;37034;47.886;-3.904;2022-12-11T14:24:11;18.45;;;10.63;;
51006;SDS011;37034;47.886;-3.904;2022-12-11T14:26:38;15.25;;;9.30;;
51006;SDS011;37034;47.886;-3.904;2022-12-11T14:29:04;16.88;;;9.77;;
51006;SDS011;37034;47.886;-3.904;2022-12-11T14:31:32;19.63;;;9.30;;
51006;SDS011;37034;47.886;-3.904;2022-12-11T14:36:35;18.98;;;11.18;;
51006;SDS011;37034;47.886;-3.904;2022-12-11T14:39:02;21.05;;;12.15;;
51006;SDS011;37034;47.886;-3.904;2022-12-11T14:41:48;30.98;;;18.20;;
51006;SDS011;37034;47.886;-3.904;2022-12-11T14:44:20;130.25;;;56.67;;
51006;SDS011;37034;47.886;-3.904;2022-12-11T14:46:52;51.70;;;25.83;;
51006;SDS011;37034;47.886;-3.904;2022-12-11T14:49:56;32.45;;;18.55;;
51006;SDS011;37034;47.886;-3.904;2022-12-11T14:52:19;21.95;;;12.27;;
51006;SDS011;37034;47.886;-3.904;2022-12-11T14:54:52;19.55;;;11.57;;
51006;SDS011;37034;47.886;-3.904;2022-12-11T14:57:24;18.67;;;11.43;;
51006;SDS011;37034;47.886;-3.904;2022-12-11T14:59:53;19.63;;;11.80;;
51006;SDS011;37034;47.886;-3.904;2022-12-11T15:02:28;22.08;;;13.30;;
51006;SDS011;37034;47.886;-3.904;2022-12-11T15:05:19;20.20;;;11.93;;
51006;SDS011;37034;47.886;-3.904;2022-12-11T15:10:53;23.60;;;14.60;;
51006;SDS011;37034;47.886;-3.904;2022-12-11T15:13:23;25.45;;;14.27;;
51006;SDS011;37034;47.886;-3.904;2022-12-11T15:15:49;33.58;;;21.10;;
51006;SDS011;37034;47.886;-3.904;2022-12-11T15:21:04;35.78;;;20.23;;
51006;SDS011;37034;47.886;-3.904;2022-12-11T15:23:55;32.00;;;19.92;;
51006;SDS011;37034;47.886;-3.904;2022-12-11T15:26:31;28.85;;;16.63;;
51006;SDS011;37034;47.886;-3.904;2022-12-11T15:29:29;32.60;;;17.85;;
51006;SDS011;37034;47.886;-3.904;2022-12-11T15:37:27;21.70;;;11.50;;
51006;SDS011;37034;47.886;-3.904;2022-12-11T15:42:23;40.90;;;13.45;;
51006;SDS011;37034;47.886;-3.904;2022-12-11T15:45:00;65.00;;;16.90;;
51006;SDS011;37034;47.886;-3.904;2022-12-11T15:47:28;24.20;;;14.52;;
51006;SDS011;37034;47.886;-3.904;2022-12-11T15:49:58;23.38;;;14.02;;
51006;SDS011;37034;47.886;-3.904;2022-12-11T15:52:45;29.52;;;13.88;;
51006;SDS011;37034;47.886;-3.904;2022-12-11T15:55:11;22.30;;;12.90;;
51006;SDS011;37034;47.886;-3.904;2022-12-11T15:57:38;25.00;;;14.43;;
51006;SDS011;37034;47.886;-3.904;2022-12-11T16:00:17;21.80;;;13.43;;
51006;SDS011;37034;47.886;-3.904;2022-12-11T16:02:44;32.58;;;15.30;;
51006;SDS011;37034;47.886;-3.904;2022-12-11T16:05:10;23.58;;;14.50;;
51006;SDS011;37034;47.886;-3.904;2022-12-11T16:07:36;23.07;;;13.60;;
51006;SDS011;37034;47.886;-3.904;2022-12-11T16:10:02;35.03;;;17.77;;
51006;SDS011;37034;47.886;-3.904;2022-12-11T16:12:29;24.20;;;14.57;;
51006;SDS011;37034;47.886;-3.904;2022-12-11T16:14:55;28.53;;;14.57;;
51006;SDS011;37034;47.886;-3.904;2022-12-11T16:17:20;24.63;;;14.60;;
51006;SDS011;37034;47.886;-3.904;2022-12-11T16:19:46;35.80;;;18.73;;
51006;SDS011;37034;47.886;-3.904;2022-12-11T16:22:12;25.23;;;14.17;;
51006;SDS011;37034;47.886;-3.904;2022-12-11T16:24:38;26.48;;;15.63;;
51006;SDS011;37034;47.886;-3.904;2022-12-11T16:27:07;19.13;;;10.68;;
51006;SDS011;37034;47.886;-3.904;2022-12-11T16:29:36;31.42;;;16.08;;
51006;SDS011;37034;47.886;-3.904;2022-12-11T16:32:03;67.90;;;14.65;;
51006;SDS011;37034;47.886;-3.904;2022-12-11T16:34:31;26.90;;;10.88;;
51006;SDS011;37034;47.886;-3.904;2022-12-11T16:36:57;16.57;;;9.83;;
51006;SDS011;37034;47.886;-3.904;2022-12-11T16:39:23;43.70;;;24.40;;
51006;SDS011;37034;47.886;-3.904;2022-12-11T16:41:48;37.00;;;21.33;;
51006;SDS011;37034;47.886;-3.904;2022-12-11T16:44:17;68.10;;;32.70;;
51006;SDS011;37034;47.886;-3.904;2022-12-11T16:46:44;47.38;;;29.70;;